createdAt,value
2023-03-03T00:01:07.269Z,15.30
2023-03-03T00:03:35.014Z,16.83
2023-03-03T00:06:04.814Z,16.87
2023-03-03T00:08:32.586Z,15.73
2023-03-03T00:11:00.921Z,14.70
2023-03-03T00:13:29.043Z,15.03
2023-03-03T00:16:12.779Z,14.63
2023-03-03T00:18:44.489Z,14.23
2023-03-03T00:21:33.570Z,14.90
2023-03-03T00:24:20.470Z,14.93
2023-03-03T00:26:55.774Z,15.70
2023-03-03T00:29:36.060Z,14.57
2023-03-03T00:32:38.273Z,14.93
2023-03-03T00:35:39.823Z,14.60
2023-03-03T00:38:18.194Z,15.27
2023-03-03T00:40:47.632Z,14.20
2023-03-03T00:43:21.247Z,14.67
2023-03-03T00:45:55.236Z,15.70
2023-03-03T00:48:42.876Z,15.60
2023-03-03T00:51:29.386Z,14.77
2023-03-03T00:53:57.926Z,14.67
2023-03-03T00:56:25.537Z,15.77
2023-03-03T00:58:53.434Z,14.97
2023-03-03T01:01:23.026Z,15.67
2023-03-03T01:03:53.377Z,15.43
2023-03-03T01:06:20.845Z,15.93
2023-03-03T01:08:48.179Z,14.97
2023-03-03T01:11:24.960Z,15.23
2023-03-03T01:13:53.351Z,16.03
2023-03-03T01:16:20.927Z,15.67
2023-03-03T01:18:48.627Z,15.03
2023-03-03T01:21:16.009Z,16.93
2023-03-03T01:23:43.526Z,15.73
2023-03-03T01:26:11.326Z,15.47
2023-03-03T01:28:39.840Z,15.20
2023-03-03T01:31:07.437Z,16.27
2023-03-03T01:33:36.318Z,15.90
2023-03-03T01:36:04.390Z,16.80
2023-03-03T01:38:31.786Z,16.27
2023-03-03T01:41:00.630Z,15.87
2023-03-03T01:43:29.700Z,16.33
2023-03-03T01:45:57.237Z,16.20
2023-03-03T01:48:45.871Z,16.33
2023-03-03T01:51:20.563Z,16.40
2023-03-03T01:53:58.360Z,17.13
2023-03-03T01:56:27.013Z,16.90
2023-03-03T01:59:01.899Z,16.50
2023-03-03T02:01:31.231Z,16.90
2023-03-03T02:04:00.387Z,15.97
2023-03-03T02:06:35.897Z,17.17
2023-03-03T02:09:16.820Z,16.73
2023-03-03T02:11:47.134Z,16.87
2023-03-03T02:14:14.850Z,15.80
2023-03-03T02:16:44.040Z,15.90
2023-03-03T02:19:36.185Z,16.83
2023-03-03T02:22:04.186Z,15.40
2023-03-03T02:24:45.945Z,15.87
2023-03-03T02:27:14.525Z,16.00
2023-03-03T02:29:43.300Z,17.43
2023-03-03T02:32:11.577Z,15.80
2023-03-03T02:34:50.637Z,15.67
2023-03-03T02:37:19.599Z,16.10
2023-03-03T02:39:47.031Z,17.53
2023-03-03T02:42:19.983Z,16.57
2023-03-03T02:44:51.752Z,15.97
2023-03-03T02:47:19.480Z,16.23
2023-03-03T02:49:47.125Z,17.07
2023-03-03T02:52:15.079Z,17.70
2023-03-03T02:54:45.997Z,16.80
2023-03-03T02:57:13.998Z,17.80
2023-03-03T02:59:41.264Z,17.60
2023-03-03T03:02:13.870Z,17.63
2023-03-03T03:04:42.436Z,17.33
2023-03-03T03:07:11.963Z,17.77
2023-03-03T03:09:40.136Z,16.73
2023-03-03T03:12:07.668Z,17.13
2023-03-03T03:14:36.203Z,17.43
2023-03-03T03:17:05.480Z,18.10
2023-03-03T03:19:33.094Z,20.77
2023-03-03T03:22:02.664Z,18.30
2023-03-03T03:24:32.213Z,17.97
2023-03-03T03:27:04.184Z,16.93
2023-03-03T03:29:31.521Z,17.47
2023-03-03T03:31:58.956Z,17.90
2023-03-03T03:34:26.730Z,16.67
2023-03-03T03:36:56.254Z,18.30
2023-03-03T03:39:25.817Z,17.73
2023-03-03T03:41:54.051Z,16.97
2023-03-03T03:44:23.934Z,16.83
2023-03-03T03:46:51.534Z,18.20
2023-03-03T03:49:20.804Z,17.43
2023-03-03T03:51:49.786Z,16.83
2023-03-03T03:54:20.333Z,17.63
2023-03-03T03:56:48.353Z,17.23
2023-03-03T03:59:15.833Z,16.87
2023-03-03T04:01:43.754Z,17.77
2023-03-03T04:04:11.952Z,17.67
2023-03-03T04:06:39.962Z,16.97
2023-03-03T04:09:07.502Z,18.73
2023-03-03T04:11:35.632Z,18.20
2023-03-03T04:14:05.214Z,17.53
2023-03-03T04:16:33.750Z,17.20
2023-03-03T04:19:01.181Z,18.87
2023-03-03T04:21:29.030Z,18.10
2023-03-03T04:23:59.505Z,17.73
2023-03-03T04:26:29.405Z,19.30
2023-03-03T04:28:57.754Z,18.50
2023-03-03T04:31:25.874Z,19.60
2023-03-03T04:33:53.757Z,19.30
2023-03-03T04:36:23.009Z,19.33
2023-03-03T04:38:50.442Z,18.43
2023-03-03T04:41:18.811Z,19.10
2023-03-03T04:43:46.480Z,18.93
2023-03-03T04:46:14.388Z,19.00
2023-03-03T04:48:41.900Z,17.97
2023-03-03T04:51:10.363Z,18.27
2023-03-03T04:53:38.968Z,17.00
2023-03-03T04:56:08.297Z,18.33
2023-03-03T04:58:37.052Z,18.60
2023-03-03T05:01:04.965Z,17.10
2023-03-03T05:03:34.163Z,17.73
2023-03-03T05:06:01.460Z,18.43
2023-03-03T05:08:28.913Z,17.67
2023-03-03T05:10:56.220Z,17.93
2023-03-03T05:13:23.621Z,17.57
2023-03-03T05:15:53.033Z,17.13
2023-03-03T05:18:21.007Z,17.50
2023-03-03T05:20:49.595Z,17.33
2023-03-03T05:23:17.231Z,17.63
2023-03-03T05:25:45.229Z,28.27
2023-03-03T05:28:12.494Z,26.37
2023-03-03T05:30:40.277Z,28.07
2023-03-03T05:33:07.699Z,19.70
2023-03-03T05:35:35.056Z,18.40
2023-03-03T05:38:05.433Z,19.30
2023-03-03T05:40:33.361Z,17.90
2023-03-03T05:43:00.897Z,18.10
2023-03-03T05:45:28.581Z,18.13
2023-03-03T05:47:56.333Z,19.03
2023-03-03T05:50:24.888Z,18.37
2023-03-03T05:52:52.889Z,17.57
2023-03-03T05:55:20.605Z,18.47
2023-03-03T05:57:47.848Z,19.20
2023-03-03T06:00:16.596Z,18.50
2023-03-03T06:02:45.122Z,17.80
2023-03-03T06:05:12.464Z,18.50
2023-03-03T06:07:39.965Z,17.97
2023-03-03T06:10:08.361Z,18.53
2023-03-03T06:12:39.141Z,19.23
2023-03-03T06:15:07.454Z,19.47
2023-03-03T06:17:34.989Z,19.37
2023-03-03T06:20:03.337Z,20.73
2023-03-03T06:22:31.083Z,19.00
2023-03-03T06:24:58.671Z,19.40
2023-03-03T06:27:25.954Z,21.23
2023-03-03T06:29:53.199Z,20.00
2023-03-03T06:32:20.535Z,20.03
2023-03-03T06:34:47.994Z,18.57
2023-03-03T06:37:15.270Z,18.97
2023-03-03T06:39:42.541Z,20.60
2023-03-03T06:42:09.903Z,19.33
2023-03-03T06:44:37.407Z,19.33
2023-03-03T06:47:05.911Z,22.23
2023-03-03T06:49:33.274Z,23.37
2023-03-03T06:52:05.686Z,21.67
2023-03-03T06:54:33.145Z,22.40
2023-03-03T06:57:08.963Z,24.47
2023-03-03T06:59:36.469Z,24.50
2023-03-03T07:02:18.989Z,24.73
2023-03-03T07:04:47.173Z,27.23
2023-03-03T07:07:20.513Z,28.80
2023-03-03T07:09:50.691Z,30.57
2023-03-03T07:12:22.162Z,32.67
2023-03-03T07:15:10.127Z,35.93
2023-03-03T07:17:42.570Z,36.37
2023-03-03T07:20:28.187Z,35.87
2023-03-03T07:22:55.502Z,37.30
2023-03-03T07:25:35.336Z,36.97
2023-03-03T07:28:22.551Z,37.33
2023-03-03T07:30:50.183Z,36.97
2023-03-03T07:33:41.503Z,37.40
2023-03-03T07:36:35.992Z,35.77
2023-03-03T07:39:40.852Z,36.80
2023-03-03T07:42:33.562Z,36.40
2023-03-03T07:45:36.277Z,36.37
2023-03-03T07:48:29.358Z,38.13
2023-03-03T07:51:04.121Z,38.67
2023-03-03T07:53:34.920Z,37.63
2023-03-03T07:56:02.576Z,37.47
2023-03-03T07:58:41.273Z,39.30
2023-03-03T08:01:29.392Z,38.47
2023-03-03T08:03:57.364Z,38.80
2023-03-03T08:06:36.597Z,38.13
2023-03-03T08:09:31.608Z,39.00
2023-03-03T08:12:19.339Z,36.60
2023-03-03T08:14:47.397Z,36.53
2023-03-03T08:17:18.156Z,37.40
2023-03-03T08:19:45.551Z,37.90
2023-03-03T08:22:17.455Z,37.60
2023-03-03T08:24:44.698Z,37.57
2023-03-03T08:27:12.019Z,38.87
2023-03-03T08:29:39.281Z,38.30
2023-03-03T08:32:07.050Z,38.37
2023-03-03T08:34:34.379Z,38.80
2023-03-03T08:37:01.699Z,37.07
2023-03-03T08:39:29.281Z,37.70
2023-03-03T08:41:56.642Z,36.83
2023-03-03T08:44:24.048Z,35.53
2023-03-03T08:46:51.562Z,33.40
2023-03-03T08:49:19.354Z,33.37
2023-03-03T08:51:47.004Z,34.90
2023-03-03T08:54:14.412Z,33.37
2023-03-03T08:56:41.817Z,33.73
2023-03-03T08:59:09.410Z,33.13
2023-03-03T09:01:36.803Z,33.33
2023-03-03T09:04:04.355Z,33.57
2023-03-03T09:06:31.631Z,33.43
2023-03-03T09:08:58.994Z,32.93
2023-03-03T09:11:28.716Z,31.37
2023-03-03T09:14:12.675Z,32.00
2023-03-03T09:16:45.272Z,32.63
2023-03-03T09:19:30.934Z,32.30
2023-03-03T09:22:19.748Z,32.17
2023-03-03T09:24:48.796Z,33.10
2023-03-03T09:27:27.453Z,33.47
2023-03-03T09:29:54.938Z,32.33
2023-03-03T09:32:26.920Z,34.03
2023-03-03T09:34:54.519Z,34.83
2023-03-03T09:37:34.111Z,35.37
2023-03-03T09:40:07.135Z,35.03
2023-03-03T09:43:00.741Z,36.27
2023-03-03T09:45:41.903Z,34.13
2023-03-03T09:48:36.369Z,36.20
2023-03-03T09:51:13.979Z,34.80
2023-03-03T09:53:52.987Z,33.30
2023-03-03T09:56:28.727Z,33.47
2023-03-03T09:59:09.730Z,33.33
2023-03-03T10:01:55.932Z,31.70
2023-03-03T10:04:44.196Z,30.53
2023-03-03T10:07:30.288Z,30.37
2023-03-03T10:10:03.370Z,30.27
2023-03-03T10:12:35.997Z,30.93
2023-03-03T10:15:27.518Z,30.87
2023-03-03T10:18:32.896Z,30.63
2023-03-03T10:21:22.618Z,30.23
2023-03-03T10:24:19.761Z,30.40
2023-03-03T10:27:32.287Z,30.77
2023-03-03T10:30:39.556Z,30.53
2023-03-03T10:33:20.769Z,30.33
2023-03-03T10:36:28.799Z,30.17
2023-03-03T10:39:23.285Z,29.73
2023-03-03T10:42:11.328Z,30.40
2023-03-03T10:44:41.670Z,28.47
2023-03-03T10:47:17.780Z,28.70
2023-03-03T10:49:48.431Z,28.63
2023-03-03T10:52:34.178Z,29.43
2023-03-03T10:55:13.734Z,27.50
2023-03-03T10:58:02.173Z,27.13
2023-03-03T11:00:46.833Z,28.30
2023-03-03T11:03:43.315Z,27.93
2023-03-03T11:07:05.889Z,28.67
2023-03-03T11:09:41.210Z,28.57
2023-03-03T11:12:28.762Z,25.60
2023-03-03T11:15:11.190Z,27.57
2023-03-03T11:18:06.927Z,26.00
2023-03-03T11:20:51.294Z,23.37
2023-03-03T11:23:32.364Z,26.13
2023-03-03T11:26:34.513Z,25.53
2023-03-03T11:29:37.584Z,23.67
2023-03-03T11:32:18.422Z,24.70
2023-03-03T11:34:45.902Z,25.07
2023-03-03T11:37:27.400Z,25.10
2023-03-03T11:40:02.582Z,23.67
2023-03-03T11:43:01.506Z,25.27
2023-03-03T11:45:46.600Z,28.20
2023-03-03T11:48:38.148Z,27.20
2023-03-03T11:51:31.009Z,27.00
2023-03-03T11:54:05.728Z,27.40
2023-03-03T11:56:45.481Z,28.47
2023-03-03T11:59:34.187Z,27.87
2023-03-03T12:02:32.322Z,27.13
2023-03-03T12:05:08.651Z,26.90
2023-03-03T12:07:47.196Z,28.30
2023-03-03T12:10:37.747Z,27.50
2023-03-03T12:13:45.902Z,28.57
2023-03-03T12:16:21.299Z,27.23
2023-03-03T12:18:48.648Z,30.07
2023-03-03T12:21:27.399Z,26.07
2023-03-03T12:24:23.955Z,26.57
2023-03-03T12:26:51.229Z,26.27
2023-03-03T12:29:41.861Z,26.83
2023-03-03T12:32:41.441Z,26.07
2023-03-03T12:35:35.751Z,27.20
2023-03-03T12:38:11.349Z,26.17
2023-03-03T12:40:53.658Z,25.77
2023-03-03T12:43:58.768Z,27.20
2023-03-03T12:46:53.274Z,27.30
2023-03-03T12:49:21.840Z,25.77
2023-03-03T12:51:57.938Z,27.37
2023-03-03T12:54:28.159Z,27.07
2023-03-03T12:57:13.973Z,27.30
2023-03-03T13:00:15.522Z,24.73
2023-03-03T13:03:04.393Z,24.80
2023-03-03T13:06:20.000Z,27.37
2023-03-03T13:08:56.130Z,24.10
2023-03-03T13:12:05.425Z,21.87
2023-03-03T13:14:40.075Z,21.00
2023-03-03T13:17:31.206Z,19.73
2023-03-03T13:20:01.081Z,19.17
2023-03-03T13:22:52.024Z,20.87
2023-03-03T13:25:19.323Z,21.23
2023-03-03T13:27:50.620Z,20.63
2023-03-03T13:30:26.310Z,19.93
2023-03-03T13:33:04.373Z,21.33
2023-03-03T13:35:50.062Z,20.60
2023-03-03T13:38:29.725Z,22.03
2023-03-03T13:41:10.221Z,20.67
2023-03-03T13:43:49.514Z,21.67
2023-03-03T13:46:31.953Z,21.30
2023-03-03T13:49:47.726Z,21.00
2023-03-03T13:52:25.510Z,22.27
2023-03-03T13:55:02.032Z,22.17
2023-03-03T13:57:48.712Z,22.77
2023-03-03T14:00:40.466Z,19.57
2023-03-03T14:03:29.338Z,21.33
2023-03-03T14:06:05.593Z,21.90
2023-03-03T14:08:32.813Z,22.27
2023-03-03T14:11:12.077Z,21.90
2023-03-03T14:14:19.745Z,23.43
2023-03-03T14:16:55.969Z,23.80
2023-03-03T14:19:32.813Z,22.50
2023-03-03T14:22:23.598Z,23.23
2023-03-03T14:25:00.000Z,20.97
2023-03-03T14:27:34.175Z,22.10
2023-03-03T14:30:27.388Z,21.67
2023-03-03T14:33:10.082Z,21.60
2023-03-03T14:35:40.898Z,21.43
2023-03-03T14:38:34.445Z,21.53
2023-03-03T14:41:12.070Z,21.03
2023-03-03T14:43:42.079Z,20.83
2023-03-03T14:46:40.371Z,21.63
2023-03-03T14:49:16.359Z,20.77
2023-03-03T14:51:49.945Z,20.07
2023-03-03T14:54:25.475Z,20.57
2023-03-03T14:57:49.038Z,19.30
2023-03-03T15:00:19.454Z,20.83
2023-03-03T15:02:53.166Z,20.73
2023-03-03T15:05:23.295Z,20.60
2023-03-03T15:08:04.748Z,20.87
2023-03-03T15:10:37.286Z,21.80
2023-03-03T15:13:20.224Z,22.73
2023-03-03T15:15:59.745Z,22.30
2023-03-03T15:18:28.209Z,22.87
2023-03-03T15:21:13.029Z,22.03
2023-03-03T15:23:57.996Z,21.40
2023-03-03T15:26:59.529Z,22.07
2023-03-03T15:29:35.438Z,20.70
2023-03-03T15:32:32.993Z,19.53
2023-03-03T15:35:07.125Z,18.97
2023-03-03T15:38:17.981Z,16.20
2023-03-03T15:40:52.518Z,15.00
2023-03-03T15:43:54.270Z,14.10
2023-03-03T15:46:34.978Z,13.97
2023-03-03T15:49:16.559Z,13.80
2023-03-03T15:52:02.440Z,13.47
2023-03-03T15:54:49.353Z,15.83
2023-03-03T15:57:41.125Z,32.47
2023-03-03T16:00:47.265Z,12.97
2023-03-03T16:03:20.914Z,12.50
2023-03-03T16:06:05.344Z,13.50
2023-03-03T16:08:49.792Z,12.50
2023-03-03T16:11:17.111Z,13.53
2023-03-03T16:14:07.162Z,13.37
2023-03-03T16:16:37.325Z,13.30
2023-03-03T16:19:41.236Z,13.57
2023-03-03T16:22:30.409Z,13.60
2023-03-03T16:25:20.853Z,13.77
2023-03-03T16:27:54.108Z,13.87
2023-03-03T16:30:56.538Z,14.10
2023-03-03T16:33:59.823Z,13.23
2023-03-03T16:36:54.928Z,13.87
2023-03-03T16:39:41.204Z,14.50
2023-03-03T16:42:33.977Z,14.03
2023-03-03T16:45:01.414Z,15.90
2023-03-03T16:47:57.689Z,17.53
2023-03-03T16:50:40.939Z,39.70
2023-03-03T16:53:43.081Z,59.83
2023-03-03T16:56:33.907Z,32.67
2023-03-03T16:59:32.452Z,22.47
2023-03-03T17:02:05.744Z,23.53
2023-03-03T17:04:51.604Z,25.60
2023-03-03T17:07:43.469Z,23.50
2023-03-03T17:10:20.752Z,21.27
2023-03-03T17:13:00.103Z,22.20
2023-03-03T17:15:41.225Z,18.77
2023-03-03T17:18:40.559Z,21.53
2023-03-03T17:21:42.997Z,23.27
2023-03-03T17:24:21.253Z,24.43
2023-03-03T17:27:25.282Z,21.13
2023-03-03T17:30:12.834Z,18.90
2023-03-03T17:33:01.738Z,19.67
2023-03-03T17:35:41.159Z,75.00
2023-03-03T17:38:27.549Z,27.80
2023-03-03T17:41:07.043Z,36.40
2023-03-03T17:43:55.236Z,22.40
2023-03-03T17:46:25.579Z,22.80
2023-03-03T17:49:15.835Z,21.27
2023-03-03T17:51:43.084Z,18.73
2023-03-03T17:54:22.087Z,17.93
2023-03-03T17:57:24.423Z,18.93
2023-03-03T18:00:10.523Z,17.17
2023-03-03T18:03:11.455Z,15.63
2023-03-03T18:05:57.436Z,15.53
2023-03-03T18:08:55.771Z,15.20
2023-03-03T18:11:40.231Z,16.50
2023-03-03T18:14:22.824Z,15.80
2023-03-03T18:17:24.349Z,14.80
2023-03-03T18:20:04.681Z,14.90
2023-03-03T18:22:34.140Z,15.13
2023-03-03T18:25:45.013Z,15.30
2023-03-03T18:28:21.509Z,15.77
2023-03-03T18:31:00.315Z,17.50
2023-03-03T18:33:44.312Z,17.40
2023-03-03T18:36:36.281Z,17.57
2023-03-03T18:39:06.244Z,18.90
2023-03-03T18:42:11.814Z,16.73
2023-03-03T18:44:39.535Z,16.50
2023-03-03T18:47:07.237Z,21.17
2023-03-03T18:50:07.351Z,18.10
2023-03-03T18:52:36.394Z,19.33
2023-03-03T18:55:09.522Z,17.77
2023-03-03T18:57:38.766Z,15.90
2023-03-03T19:00:15.563Z,16.60
2023-03-03T19:02:54.017Z,16.23
2023-03-03T19:05:28.962Z,16.20
2023-03-03T19:08:03.470Z,16.33
2023-03-03T19:10:40.041Z,17.43
2023-03-03T19:13:33.289Z,17.63
2023-03-03T19:16:08.991Z,17.83
2023-03-03T19:18:56.356Z,18.17
2023-03-03T19:21:38.103Z,18.60
2023-03-03T19:24:12.503Z,18.27
2023-03-03T19:27:15.111Z,19.27
2023-03-03T19:29:59.156Z,20.17
2023-03-03T19:33:01.380Z,20.50
2023-03-03T19:35:59.096Z,21.00
2023-03-03T19:38:53.664Z,20.43
2023-03-03T19:41:20.887Z,20.80
2023-03-03T19:43:54.184Z,20.80
2023-03-03T19:46:52.146Z,21.63
2023-03-03T19:49:48.717Z,21.53
2023-03-03T19:52:28.662Z,23.87
2023-03-03T19:55:01.864Z,25.63
2023-03-03T19:57:44.108Z,25.43
2023-03-03T20:00:20.467Z,25.10
2023-03-03T20:03:26.718Z,26.33
2023-03-03T20:06:07.616Z,25.37
2023-03-03T20:08:39.507Z,26.77
2023-03-03T20:11:16.118Z,54.97
2023-03-03T20:14:00.995Z,52.03
2023-03-03T20:16:41.870Z,57.33
2023-03-03T20:19:41.739Z,43.47
2023-03-03T20:22:31.584Z,36.13
2023-03-03T20:25:15.520Z,47.43
2023-03-03T20:28:00.441Z,35.93
2023-03-03T20:30:56.645Z,31.00
2023-03-03T20:33:40.221Z,31.63
2023-03-03T20:36:14.102Z,30.00
2023-03-03T20:38:51.920Z,29.53
2023-03-03T20:41:40.353Z,29.50
2023-03-03T20:44:07.644Z,30.03
2023-03-03T20:46:53.196Z,30.17
2023-03-03T20:49:38.784Z,33.37
2023-03-03T20:52:15.291Z,31.70
2023-03-03T20:55:10.567Z,39.60
2023-03-03T20:57:38.559Z,33.40
2023-03-03T21:00:26.537Z,31.80
2023-03-03T21:03:00.258Z,30.40
2023-03-03T21:05:27.901Z,30.60
2023-03-03T21:08:04.547Z,30.70
2023-03-03T21:10:37.494Z,31.60
2023-03-03T21:13:29.475Z,33.83
2023-03-03T21:16:03.879Z,32.33
2023-03-03T21:18:32.160Z,31.87
2023-03-03T21:20:59.427Z,31.77
2023-03-03T21:23:26.742Z,30.87
2023-03-03T21:25:56.741Z,32.60
2023-03-03T21:28:32.747Z,37.17
2023-03-03T21:31:10.157Z,34.63
2023-03-03T21:33:48.138Z,33.13
2023-03-03T21:36:20.374Z,30.53
2023-03-03T21:38:48.379Z,27.37
2023-03-03T21:41:17.124Z,27.83
2023-03-03T21:43:50.586Z,28.57
2023-03-03T21:46:20.209Z,27.87
2023-03-03T21:48:47.913Z,25.93
2023-03-03T21:51:15.442Z,27.10
2023-03-03T21:53:44.185Z,31.70
2023-03-03T21:56:13.859Z,30.33
2023-03-03T21:58:41.849Z,28.13
2023-03-03T22:01:09.833Z,28.10
2023-03-03T22:03:37.596Z,27.43
2023-03-03T22:06:05.321Z,28.60
2023-03-03T22:08:33.087Z,28.30
2023-03-03T22:11:00.695Z,28.67
2023-03-03T22:13:28.157Z,28.17
2023-03-03T22:15:55.514Z,26.97
2023-03-03T22:18:23.006Z,26.73
2023-03-03T22:20:50.714Z,25.80
2023-03-03T22:23:19.135Z,26.53
2023-03-03T22:25:46.656Z,26.73
2023-03-03T22:28:14.059Z,25.37
2023-03-03T22:30:41.345Z,26.23
2023-03-03T22:33:08.696Z,24.73
2023-03-03T22:35:36.011Z,26.20
2023-03-03T22:38:03.551Z,26.87
2023-03-03T22:40:31.974Z,26.47
2023-03-03T22:43:00.132Z,26.30
2023-03-03T22:45:27.651Z,26.73
2023-03-03T22:47:55.023Z,26.17
2023-03-03T22:50:22.584Z,25.63
2023-03-03T22:52:49.866Z,26.00
2023-03-03T22:55:17.309Z,25.33
2023-03-03T22:57:44.557Z,26.33
2023-03-03T23:00:13.095Z,25.60
2023-03-03T23:02:40.769Z,26.10
2023-03-03T23:05:11.197Z,27.03
2023-03-03T23:07:41.030Z,25.43
2023-03-03T23:10:09.481Z,27.07
2023-03-03T23:12:37.016Z,26.67
2023-03-03T23:15:13.404Z,25.77
2023-03-03T23:17:45.434Z,26.63
2023-03-03T23:20:15.565Z,26.93
2023-03-03T23:22:43.036Z,27.27
2023-03-03T23:25:10.969Z,28.67
2023-03-03T23:27:38.283Z,28.40
2023-03-03T23:30:07.231Z,28.93
2023-03-03T23:32:34.754Z,27.67
2023-03-03T23:35:02.154Z,27.33
2023-03-03T23:37:29.631Z,28.17
2023-03-03T23:39:56.996Z,28.43
2023-03-03T23:42:28.014Z,27.73
2023-03-03T23:44:55.448Z,27.83
2023-03-03T23:47:23.577Z,27.67
2023-03-03T23:49:50.860Z,27.07
2023-03-03T23:52:20.791Z,26.93
2023-03-03T23:54:48.295Z,27.23
2023-03-03T23:57:15.544Z,27.17
2023-03-03T23:59:42.796Z,27.80
